sensor_id;sensor_type;location;lat;lon;timestamp;pressure;altitude;pressure_sealevel;temperature;humidity
17635;BME280;8936;49.010;12.120;2022-10-16T00:02:05;97941.56;;;15.94;100.00
17635;BME280;8936;49.010;12.120;2022-10-16T00:04:32;97936.38;;;15.84;100.00
17635;BME280;8936;49.010;12.120;2022-10-16T00:06:58;97933.69;;;15.98;100.00
17635;BME280;8936;49.010;12.120;2022-10-16T00:09:24;97932.44;;;16.09;100.00
17635;BME280;8936;49.010;12.120;2022-10-16T00:11:51;97938.19;;;16.16;100.00
17635;BME280;8936;49.010;12.120;2022-10-16T00:14:17;97934.81;;;16.10;100.00
17635;BME280;8936;49.010;12.120;2022-10-16T00:16:44;97932.00;;;16.15;100.00
17635;BME280;8936;49.010;12.120;2022-10-16T00:19:11;97939.00;;;16.16;100.00
17635;BME280;8936;49.010;12.120;2022-10-16T00:21:38;97937.00;;;16.08;100.00
17635;BME280;8936;49.010;12.120;2022-10-16T00:24:05;97932.56;;;15.85;100.00
17635;BME280;8936;49.010;12.120;2022-10-16T00:26:33;97945.75;;;15.87;100.00
17635;BME280;8936;49.010;12.120;2022-10-16T00:29:00;97940.84;;;15.75;100.00
17635;BME280;8936;49.010;12.120;2022-10-16T00:31:26;97944.53;;;15.79;100.00
17635;BME280;8936;49.010;12.120;2022-10-16T00:33:53;97937.06;;;15.57;100.00
17635;BME280;8936;49.010;12.120;2022-10-16T00:36:21;97941.88;;;15.60;100.00
17635;BME280;8936;49.010;12.120;2022-10-16T00:38:49;97937.88;;;15.58;100.00
17635;BME280;8936;49.010;12.120;2022-10-16T00:41:17;97951.25;;;15.63;100.00
17635;BME280;8936;49.010;12.120;2022-10-16T00:43:45;97946.28;;;15.70;100.00
17635;BME280;8936;49.010;12.120;2022-10-16T00:46:16;97941.34;;;15.77;100.00
17635;BME280;8936;49.010;12.120;2022-10-16T00:48:45;97937.56;;;15.92;100.00
17635;BME280;8936;49.010;12.120;2022-10-16T00:51:12;97936.31;;;16.03;100.00
17635;BME280;8936;49.010;12.120;2022-10-16T00:53:41;97931.78;;;15.98;100.00
17635;BME280;8936;49.010;12.120;2022-10-16T00:56:07;97933.16;;;15.82;100.00
17635;BME280;8936;49.010;12.120;2022-10-16T00:58:34;97937.75;;;15.82;100.00
17635;BME280;8936;49.010;12.120;2022-10-16T01:01:00;97934.72;;;15.70;100.00
17635;BME280;8936;49.010;12.120;2022-10-16T01:03:28;97948.28;;;15.64;100.00
17635;BME280;8936;49.010;12.120;2022-10-16T01:06:07;97946.97;;;15.62;100.00
17635;BME280;8936;49.010;12.120;2022-10-16T01:08:44;97943.25;;;15.58;100.00
17635;BME280;8936;49.010;12.120;2022-10-16T01:11:16;97946.06;;;15.53;100.00
17635;BME280;8936;49.010;12.120;2022-10-16T01:13:46;97943.25;;;15.58;100.00
17635;BME280;8936;49.010;12.120;2022-10-16T01:16:16;97945.09;;;15.44;100.00
17635;BME280;8936;49.010;12.120;2022-10-16T01:18:46;97942.97;;;15.41;100.00
17635;BME280;8936;49.010;12.120;2022-10-16T01:21:15;97948.28;;;15.46;100.00
17635;BME280;8936;49.010;12.120;2022-10-16T01:23:47;97950.16;;;15.64;100.00
17635;BME280;8936;49.010;12.120;2022-10-16T01:26:24;97955.88;;;15.76;100.00
17635;BME280;8936;49.010;12.120;2022-10-16T01:28:56;97955.22;;;15.52;100.00
17635;BME280;8936;49.010;12.120;2022-10-16T01:31:25;97958.53;;;15.44;100.00
17635;BME280;8936;49.010;12.120;2022-10-16T01:33:55;97968.19;;;15.45;100.00
17635;BME280;8936;49.010;12.120;2022-10-16T01:36:24;97974.38;;;15.64;100.00
17635;BME280;8936;49.010;12.120;2022-10-16T01:38:52;97974.22;;;15.74;100.00
17635;BME280;8936;49.010;12.120;2022-10-16T01:41:21;97975.06;;;15.88;100.00
17635;BME280;8936;49.010;12.120;2022-10-16T01:43:52;97978.88;;;15.87;100.00
17635;BME280;8936;49.010;12.120;2022-10-16T01:46:21;97975.06;;;15.88;100.00
17635;BME280;8936;49.010;12.120;2022-10-16T01:48:48;97976.66;;;15.89;100.00
17635;BME280;8936;49.010;12.120;2022-10-16T01:51:17;97978.88;;;15.87;100.00
17635;BME280;8936;49.010;12.120;2022-10-16T01:53:45;97984.44;;;15.91;100.00
17635;BME280;8936;49.010;12.120;2022-10-16T01:56:13;97988.25;;;15.90;100.00
17635;BME280;8936;49.010;12.120;2022-10-16T01:58:42;97984.69;;;15.76;100.00
17635;BME280;8936;49.010;12.120;2022-10-16T02:01:11;97978.09;;;15.68;100.00
17635;BME280;8936;49.010;12.120;2022-10-16T02:03:40;97984.00;;;15.70;100.00
17635;BME280;8936;49.010;12.120;2022-10-16T02:06:09;97983.63;;;15.77;100.00
17635;BME280;8936;49.010;12.120;2022-10-16T02:08:35;97987.53;;;15.84;100.00
17635;BME280;8936;49.010;12.120;2022-10-16T02:11:02;97980.44;;;15.88;100.00
17635;BME280;8936;49.010;12.120;2022-10-16T02:13:29;97977.50;;;15.71;100.00
17635;BME280;8936;49.010;12.120;2022-10-16T02:15:57;97982.47;;;15.64;100.00
17635;BME280;8936;49.010;12.120;2022-10-16T02:18:24;97990.53;;;15.64;100.00
17635;BME280;8936;49.010;12.120;2022-10-16T02:20:56;97985.16;;;15.64;100.00
17635;BME280;8936;49.010;12.120;2022-10-16T02:23:24;97982.44;;;15.50;100.00
17635;BME280;8936;49.010;12.120;2022-10-16T02:25:54;97979.44;;;15.52;100.00
17635;BME280;8936;49.010;12.120;2022-10-16T02:28:23;97989.19;;;15.48;100.00
17635;BME280;8936;49.010;12.120;2022-10-16T02:30:51;97974.25;;;15.37;100.00
17635;BME280;8936;49.010;12.120;2022-10-16T02:33:21;97987.03;;;15.45;100.00
17635;BME280;8936;49.010;12.120;2022-10-16T02:35:47;97989.00;;;15.39;100.00
17635;BME280;8936;49.010;12.120;2022-10-16T02:38:17;97985.75;;;15.61;100.00
17635;BME280;8936;49.010;12.120;2022-10-16T02:40:44;97980.22;;;15.34;100.00
17635;BME280;8936;49.010;12.120;2022-10-16T02:43:11;97987.56;;;15.47;100.00
17635;BME280;8936;49.010;12.120;2022-10-16T02:45:37;97989.59;;;15.36;100.00
17635;BME280;8936;49.010;12.120;2022-10-16T02:48:04;97997.59;;;15.41;100.00
17635;BME280;8936;49.010;12.120;2022-10-16T02:50:31;97998.47;;;15.37;100.00
17635;BME280;8936;49.010;12.120;2022-10-16T02:52:57;97993.75;;;15.47;100.00
17635;BME280;8936;49.010;12.120;2022-10-16T02:55:25;98000.13;;;15.33;100.00
17635;BME280;8936;49.010;12.120;2022-10-16T02:57:53;98000.22;;;15.46;100.00
17635;BME280;8936;49.010;12.120;2022-10-16T03:00:19;98008.00;;;15.48;100.00
17635;BME280;8936;49.010;12.120;2022-10-16T03:02:46;98005.53;;;15.51;100.00
17635;BME280;8936;49.010;12.120;2022-10-16T03:05:12;98000.59;;;15.40;100.00
17635;BME280;8936;49.010;12.120;2022-10-16T03:07:39;97998.47;;;15.37;100.00
17635;BME280;8936;49.010;12.120;2022-10-16T03:10:06;97987.34;;;15.25;100.00
17635;BME280;8936;49.010;12.120;2022-10-16T03:12:34;97992.66;;;15.30;100.00
17635;BME280;8936;49.010;12.120;2022-10-16T03:15:00;97993.59;;;15.20;100.00
17635;BME280;8936;49.010;12.120;2022-10-16T03:17:27;98000.66;;;15.16;100.00
17635;BME280;8936;49.010;12.120;2022-10-16T03:19:53;97996.63;;;15.13;100.00
17635;BME280;8936;49.010;12.120;2022-10-16T03:22:20;97994.13;;;15.22;100.00
17635;BME280;8936;49.010;12.120;2022-10-16T03:24:46;98000.84;;;15.20;100.00
17635;BME280;8936;49.010;12.120;2022-10-16T03:27:13;98010.31;;;15.36;100.00
17635;BME280;8936;49.010;12.120;2022-10-16T03:29:41;98002.59;;;15.29;100.00
17635;BME280;8936;49.010;12.120;2022-10-16T03:32:07;98015.47;;;15.32;100.00
17635;BME280;8936;49.010;12.120;2022-10-16T03:34:34;98020.59;;;15.34;100.00
17635;BME280;8936;49.010;12.120;2022-10-16T03:37:00;98016.00;;;15.34;100.00
17635;BME280;8936;49.010;12.120;2022-10-16T03:39:26;98012.06;;;15.27;100.00
17635;BME280;8936;49.010;12.120;2022-10-16T03:41:53;98021.81;;;15.41;100.00
17635;BME280;8936;49.010;12.120;2022-10-16T03:44:19;98016.38;;;15.46;100.00
17635;BME280;8936;49.010;12.120;2022-10-16T03:46:47;98018.25;;;15.27;100.00
17635;BME280;8936;49.010;12.120;2022-10-16T03:49:14;98014.31;;;15.20;100.00
17635;BME280;8936;49.010;12.120;2022-10-16T03:51:40;98013.66;;;15.28;100.00
17635;BME280;8936;49.010;12.120;2022-10-16T03:54:06;98011.91;;;15.18;100.00
17635;BME280;8936;49.010;12.120;2022-10-16T03:56:33;98016.00;;;15.16;100.00
17635;BME280;8936;49.010;12.120;2022-10-16T03:58:59;98021.06;;;15.17;100.00
17635;BME280;8936;49.010;12.120;2022-10-16T04:01:25;98013.94;;;15.07;100.00
17635;BME280;8936;49.010;12.120;2022-10-16T04:03:53;98013.50;;;15.00;100.00
17635;BME280;8936;49.010;12.120;2022-10-16T04:06:19;97999.53;;;14.98;100.00
17635;BME280;8936;49.010;12.120;2022-10-16T04:08:46;98010.81;;;15.00;100.00
17635;BME280;8936;49.010;12.120;2022-10-16T04:11:12;98012.47;;;14.96;100.00
17635;BME280;8936;49.010;12.120;2022-10-16T04:13:39;98024.38;;;14.90;100.00
17635;BME280;8936;49.010;12.120;2022-10-16T04:16:05;98025.19;;;14.91;100.00
17635;BME280;8936;49.010;12.120;2022-10-16T04:18:32;98030.34;;;14.87;100.00
17635;BME280;8936;49.010;12.120;2022-10-16T04:21:02;98027.16;;;14.85;100.00
17635;BME280;8936;49.010;12.120;2022-10-16T04:23:29;98034.91;;;14.87;100.00
17635;BME280;8936;49.010;12.120;2022-10-16T04:25:55;98035.47;;;14.84;100.00
17635;BME280;8936;49.010;12.120;2022-10-16T04:28:21;98042.41;;;14.90;100.00
17635;BME280;8936;49.010;12.120;2022-10-16T04:30:48;98053.84;;;15.00;100.00
17635;BME280;8936;49.010;12.120;2022-10-16T04:33:14;98050.34;;;15.00;100.00
17635;BME280;8936;49.010;12.120;2022-10-16T04:35:41;98054.19;;;14.94;100.00
17635;BME280;8936;49.010;12.120;2022-10-16T04:38:08;98052.88;;;14.91;100.00
17635;BME280;8936;49.010;12.120;2022-10-16T04:40:35;98058.25;;;14.91;100.00
17635;BME280;8936;49.010;12.120;2022-10-16T04:43:01;98068.38;;;14.99;100.00
17635;BME280;8936;49.010;12.120;2022-10-16T04:45:28;98057.50;;;15.09;100.00
17635;BME280;8936;49.010;12.120;2022-10-16T04:47:56;98058.31;;;15.10;100.00
17635;BME280;8936;49.010;12.120;2022-10-16T04:50:23;98066.72;;;15.03;100.00
17635;BME280;8936;49.010;12.120;2022-10-16T04:52:49;98063.56;;;14.96;100.00
17635;BME280;8936;49.010;12.120;2022-10-16T04:55:17;98062.53;;;14.92;100.00
17635;BME280;8936;49.010;12.120;2022-10-16T04:57:43;98055.84;;;14.90;100.00
17635;BME280;8936;49.010;12.120;2022-10-16T05:00:10;98048.41;;;14.82;100.00
17635;BME280;8936;49.010;12.120;2022-10-16T05:02:36;98055.38;;;14.83;100.00
17635;BME280;8936;49.010;12.120;2022-10-16T05:05:03;98054.47;;;14.92;100.00
17635;BME280;8936;49.010;12.120;2022-10-16T05:07:29;98053.47;;;14.88;100.00
17635;BME280;8936;49.010;12.120;2022-10-16T05:09:56;98059.25;;;14.95;100.00
17635;BME280;8936;49.010;12.120;2022-10-16T05:12:24;98067.06;;;14.97;100.00
17635;BME280;8936;49.010;12.120;2022-10-16T05:14:50;98067.56;;;14.99;100.00
17635;BME280;8936;49.010;12.120;2022-10-16T05:17:17;98063.84;;;14.95;100.00
17635;BME280;8936;49.010;12.120;2022-10-16T05:19:43;98064.47;;;14.87;100.00
17635;BME280;8936;49.010;12.120;2022-10-16T05:22:09;98065.78;;;14.89;100.00
17635;BME280;8936;49.010;12.120;2022-10-16T05:24:36;98073.19;;;15.02;100.00
17635;BME280;8936;49.010;12.120;2022-10-16T05:27:02;98083.13;;;15.02;100.00
17635;BME280;8936;49.010;12.120;2022-10-16T05:29:30;98063.25;;;14.98;100.00
17635;BME280;8936;49.010;12.120;2022-10-16T05:31:57;98076.72;;;14.98;100.00
17635;BME280;8936;49.010;12.120;2022-10-16T05:34:23;98076.44;;;14.99;100.00
17635;BME280;8936;49.010;12.120;2022-10-16T05:36:50;98070.16;;;14.85;100.00
17635;BME280;8936;49.010;12.120;2022-10-16T05:39:17;98064.03;;;14.80;100.00
17635;BME280;8936;49.010;12.120;2022-10-16T05:41:43;98075.56;;;14.80;100.00
17635;BME280;8936;49.010;12.120;2022-10-16T05:44:09;98066.47;;;14.76;100.00
17635;BME280;8936;49.010;12.120;2022-10-16T05:46:37;98045.03;;;14.71;100.00
17635;BME280;8936;49.010;12.120;2022-10-16T05:49:03;98049.66;;;14.66;100.00
17635;BME280;8936;49.010;12.120;2022-10-16T05:51:30;98038.91;;;14.66;100.00
17635;BME280;8936;49.010;12.120;2022-10-16T05:53:56;98034.13;;;14.63;100.00
17635;BME280;8936;49.010;12.120;2022-10-16T05:56:22;98041.84;;;14.69;100.00
17635;BME280;8936;49.010;12.120;2022-10-16T05:58:49;98045.72;;;14.58;100.00
17635;BME280;8936;49.010;12.120;2022-10-16T06:01:16;98055.38;;;14.59;100.00
17635;BME280;8936;49.010;12.120;2022-10-16T06:03:43;98066.72;;;14.56;100.00
17635;BME280;8936;49.010;12.120;2022-10-16T06:06:12;98067.59;;;14.46;100.00
17635;BME280;8936;49.010;12.120;2022-10-16T06:08:39;98068.41;;;14.47;100.00
17635;BME280;8936;49.010;12.120;2022-10-16T06:11:07;98072.41;;;14.49;100.00
17635;BME280;8936;49.010;12.120;2022-10-16T06:13:34;98074.81;;;14.51;100.00
17635;BME280;8936;49.010;12.120;2022-10-16T06:16:00;98075.34;;;14.53;100.00
17635;BME280;8936;49.010;12.120;2022-10-16T06:18:27;98085.00;;;14.54;100.00
17635;BME280;8936;49.010;12.120;2022-10-16T06:20:55;98096.28;;;14.56;100.00
17635;BME280;8936;49.010;12.120;2022-10-16T06:23:22;98086.91;;;14.48;100.00
17635;BME280;8936;49.010;12.120;2022-10-16T06:25:48;98100.66;;;14.47;100.00
17635;BME280;8936;49.010;12.120;2022-10-16T06:28:15;98095.53;;;14.50;100.00
17635;BME280;8936;49.010;12.120;2022-10-16T06:30:42;98097.09;;;14.51;100.00
17635;BME280;8936;49.010;12.120;2022-10-16T06:33:09;98101.69;;;14.51;100.00
17635;BME280;8936;49.010;12.120;2022-10-16T06:35:35;98120.94;;;14.63;100.00
17635;BME280;8936;49.010;12.120;2022-10-16T06:38:03;98124.69;;;14.62;100.00
17635;BME280;8936;49.010;12.120;2022-10-16T06:40:29;98132.81;;;14.57;100.00
17635;BME280;8936;49.010;12.120;2022-10-16T06:42:56;98140.19;;;14.70;100.00
17635;BME280;8936;49.010;12.120;2022-10-16T06:45:22;98138.19;;;14.57;100.00
17635;BME280;8936;49.010;12.120;2022-10-16T06:47:49;98154.03;;;14.58;100.00
17635;BME280;8936;49.010;12.120;2022-10-16T06:50:15;98158.03;;;14.61;100.00
17635;BME280;8936;49.010;12.120;2022-10-16T06:52:41;98148.63;;;14.64;100.00
17635;BME280;8936;49.010;12.120;2022-10-16T06:55:09;98158.00;;;14.66;100.00
17635;BME280;8936;49.010;12.120;2022-10-16T06:57:36;98157.75;;;14.63;100.00
17635;BME280;8936;49.010;12.120;2022-10-16T07:00:02;98161.84;;;14.55;100.00
17635;BME280;8936;49.010;12.120;2022-10-16T07:02:29;98161.34;;;14.53;100.00
17635;BME280;8936;49.010;12.120;2022-10-16T07:04:55;98170.16;;;14.58;100.00
17635;BME280;8936;49.010;12.120;2022-10-16T07:07:22;98181.19;;;14.57;100.00
17635;BME280;8936;49.010;12.120;2022-10-16T07:09:49;98184.91;;;14.61;100.00
17635;BME280;8936;49.010;12.120;2022-10-16T07:12:17;98180.06;;;14.63;100.00
17635;BME280;8936;49.010;12.120;2022-10-16T07:14:43;98182.47;;;14.65;100.00
17635;BME280;8936;49.010;12.120;2022-10-16T07:17:10;98184.56;;;14.73;100.00
17635;BME280;8936;49.010;12.120;2022-10-16T07:19:36;98188.25;;;14.77;100.00
17635;BME280;8936;49.010;12.120;2022-10-16T07:22:03;98195.97;;;14.88;100.00
17635;BME280;8936;49.010;12.120;2022-10-16T07:24:30;98196.47;;;14.90;100.00
17635;BME280;8936;49.010;12.120;2022-10-16T07:26:56;98195.97;;;14.88;100.00
17635;BME280;8936;49.010;12.120;2022-10-16T07:29:24;98193.50;;;14.92;100.00
17635;BME280;8936;49.010;12.120;2022-10-16T07:31:50;98203.41;;;14.96;100.00
17635;BME280;8936;49.010;12.120;2022-10-16T07:34:17;98200.50;;;14.93;100.00
17635;BME280;8936;49.010;12.120;2022-10-16T07:36:43;98192.16;;;14.94;100.00
17635;BME280;8936;49.010;12.120;2022-10-16T07:39:11;98186.72;;;14.99;100.00
17635;BME280;8936;49.010;12.120;2022-10-16T07:41:37;98186.06;;;15.07;100.00
17635;BME280;8936;49.010;12.120;2022-10-16T07:44:03;98199.16;;;15.19;100.00
17635;BME280;8936;49.010;12.120;2022-10-16T07:46:32;98199.84;;;15.30;100.00
17635;BME280;8936;49.010;12.120;2022-10-16T07:49:00;98198.25;;;15.29;100.00
17635;BME280;8936;49.010;12.120;2022-10-16T07:51:27;98208.06;;;15.38;100.00
17635;BME280;8936;49.010;12.120;2022-10-16T07:53:53;98211.56;;;15.39;100.00
17635;BME280;8936;49.010;12.120;2022-10-16T07:56:20;98203.06;;;15.55;100.00
17635;BME280;8936;49.010;12.120;2022-10-16T07:58:47;98199.06;;;15.53;100.00
17635;BME280;8936;49.010;12.120;2022-10-16T08:01:15;98202.00;;;15.56;100.00
17635;BME280;8936;49.010;12.120;2022-10-16T08:03:43;98198.88;;;15.68;100.00
17635;BME280;8936;49.010;12.120;2022-10-16T08:06:10;98198.31;;;15.71;100.00
17635;BME280;8936;49.010;12.120;2022-10-16T08:08:36;98190.38;;;15.80;100.00
17635;BME280;8936;49.010;12.120;2022-10-16T08:11:03;98205.38;;;15.86;100.00
17635;BME280;8936;49.010;12.120;2022-10-16T08:13:29;98206.09;;;15.91;100.00
17635;BME280;8936;49.010;12.120;2022-10-16T08:15:56;98207.72;;;15.92;100.00
17635;BME280;8936;49.010;12.120;2022-10-16T08:18:22;98208.22;;;15.94;100.00
17635;BME280;8936;49.010;12.120;2022-10-16T08:20:55;98210.31;;;15.97;100.00
17635;BME280;8936;49.010;12.120;2022-10-16T08:23:22;98225.56;;;16.07;100.00
17635;BME280;8936;49.010;12.120;2022-10-16T08:25:50;98230.22;;;16.20;100.00
17635;BME280;8936;49.010;12.120;2022-10-16T08:28:17;98222.28;;;16.29;100.00
17635;BME280;8936;49.010;12.120;2022-10-16T08:30:43;98214.63;;;16.36;100.00
17635;BME280;8936;49.010;12.120;2022-10-16T08:33:09;98230.66;;;16.46;100.00
17635;BME280;8936;49.010;12.120;2022-10-16T08:35:36;98238.91;;;16.36;100.00
17635;BME280;8936;49.010;12.120;2022-10-16T08:38:04;98229.34;;;16.43;100.00
17635;BME280;8936;49.010;12.120;2022-10-16T08:40:31;98230.81;;;16.54;100.00
17635;BME280;8936;49.010;12.120;2022-10-16T08:43:03;98231.44;;;16.65;100.00
17635;BME280;8936;49.010;12.120;2022-10-16T08:45:39;98227.22;;;16.59;100.00
17635;BME280;8936;49.010;12.120;2022-10-16T08:48:14;98220.47;;;16.61;100.00
17635;BME280;8936;49.010;12.120;2022-10-16T08:50:43;98219.88;;;16.64;100.00
17635;BME280;8936;49.010;12.120;2022-10-16T08:53:13;98218.28;;;16.63;100.00
17635;BME280;8936;49.010;12.120;2022-10-16T08:55:41;98206.78;;;16.58;100.00
17635;BME280;8936;49.010;12.120;2022-10-16T08:58:10;98209.47;;;16.58;100.00
17635;BME280;8936;49.010;12.120;2022-10-16T09:00:38;98203.50;;;16.61;100.00
17635;BME280;8936;49.010;12.120;2022-10-16T09:03:06;98200.81;;;16.74;100.00
17635;BME280;8936;49.010;12.120;2022-10-16T09:05:44;98207.81;;;16.76;100.00
17635;BME280;8936;49.010;12.120;2022-10-16T09:08:17;98209.84;;;16.84;100.00
17635;BME280;8936;49.010;12.120;2022-10-16T09:10:50;98207.34;;;16.87;100.00
17635;BME280;8936;49.010;12.120;2022-10-16T09:13:22;98215.75;;;16.99;100.00
17635;BME280;8936;49.010;12.120;2022-10-16T09:15:52;98211.81;;;17.10;100.00
17635;BME280;8936;49.010;12.120;2022-10-16T09:18:22;98215.31;;;17.24;100.00
17635;BME280;8936;49.010;12.120;2022-10-16T09:20:53;98207.81;;;17.21;100.00
17635;BME280;8936;49.010;12.120;2022-10-16T09:23:25;98210.22;;;17.37;100.00
17635;BME280;8936;49.010;12.120;2022-10-16T09:25:52;98216.03;;;17.44;100.00
17635;BME280;8936;49.010;12.120;2022-10-16T09:28:19;98210.44;;;17.54;100.00
17635;BME280;8936;49.010;12.120;2022-10-16T09:30:45;98206.25;;;17.48;100.00
17635;BME280;8936;49.010;12.120;2022-10-16T09:33:13;98216.25;;;17.61;100.00
17635;BME280;8936;49.010;12.120;2022-10-16T09:35:40;98206.38;;;17.70;100.00
17635;BME280;8936;49.010;12.120;2022-10-16T09:38:07;98222.88;;;17.68;100.00
17635;BME280;8936;49.010;12.120;2022-10-16T09:40:36;98221.84;;;17.64;100.00
17635;BME280;8936;49.010;12.120;2022-10-16T09:43:06;98221.38;;;17.76;100.00
17635;BME280;8936;49.010;12.120;2022-10-16T09:45:38;98235.47;;;17.73;100.00
17635;BME280;8936;49.010;12.120;2022-10-16T09:48:09;98243.97;;;17.66;100.00
17635;BME280;8936;49.010;12.120;2022-10-16T09:50:37;98247.88;;;17.74;100.00
17635;BME280;8936;49.010;12.120;2022-10-16T09:53:04;98246.28;;;17.73;100.00
17635;BME280;8936;49.010;12.120;2022-10-16T09:55:30;98259.47;;;17.88;100.00
17635;BME280;8936;49.010;12.120;2022-10-16T09:57:58;98250.97;;;17.81;100.00
17635;BME280;8936;49.010;12.120;2022-10-16T10:00:25;98255.44;;;17.99;100.00
17635;BME280;8936;49.010;12.120;2022-10-16T10:02:51;98252.34;;;18.06;100.00
17635;BME280;8936;49.010;12.120;2022-10-16T10:05:19;98254.84;;;18.02;100.00
17635;BME280;8936;49.010;12.120;2022-10-16T10:07:52;98261.06;;;18.03;100.00
17635;BME280;8936;49.010;12.120;2022-10-16T10:10:20;98262.44;;;18.14;100.00
17635;BME280;8936;49.010;12.120;2022-10-16T10:12:47;98253.72;;;18.17;100.00
17635;BME280;8936;49.010;12.120;2022-10-16T10:15:15;98254.91;;;18.24;100.00
17635;BME280;8936;49.010;12.120;2022-10-16T10:17:45;98259.72;;;18.27;100.00
17635;BME280;8936;49.010;12.120;2022-10-16T10:20:15;98250.91;;;18.22;100.00
17635;BME280;8936;49.010;12.120;2022-10-16T10:22:47;98249.56;;;18.33;100.00
17635;BME280;8936;49.010;12.120;2022-10-16T10:25:22;98254.19;;;18.32;100.00
17635;BME280;8936;49.010;12.120;2022-10-16T10:28:07;98252.41;;;18.28;100.00
17635;BME280;8936;49.010;12.120;2022-10-16T10:30:40;98241.97;;;18.35;100.00
17635;BME280;8936;49.010;12.120;2022-10-16T10:33:14;98234.56;;;18.27;100.00
17635;BME280;8936;49.010;12.120;2022-10-16T10:35:45;98237.28;;;18.27;100.00
17635;BME280;8936;49.010;12.120;2022-10-16T10:38:19;98241.03;;;18.40;100.00
17635;BME280;8936;49.010;12.120;2022-10-16T10:40:51;98236.31;;;18.45;100.00
17635;BME280;8936;49.010;12.120;2022-10-16T10:43:25;98234.31;;;18.51;100.00
17635;BME280;8936;49.010;12.120;2022-10-16T10:45:58;98233.22;;;18.52;100.00
17635;BME280;8936;49.010;12.120;2022-10-16T10:48:38;98235.31;;;18.55;100.00
17635;BME280;8936;49.010;12.120;2022-10-16T10:51:11;98245.41;;;18.63;100.00
17635;BME280;8936;49.010;12.120;2022-10-16T10:53:40;98237.31;;;18.63;100.00
17635;BME280;8936;49.010;12.120;2022-10-16T10:56:13;98234.59;;;18.63;100.00
17635;BME280;8936;49.010;12.120;2022-10-16T10:58:55;98241.09;;;18.62;100.00
17635;BME280;8936;49.010;12.120;2022-10-16T11:01:30;98243.94;;;18.57;100.00
17635;BME280;8936;49.010;12.120;2022-10-16T11:04:08;98232.53;;;18.46;100.00
17635;BME280;8936;49.010;12.120;2022-10-16T11:06:41;98241.72;;;18.59;100.00
17635;BME280;8936;49.010;12.120;2022-10-16T11:09:11;98238.94;;;18.72;100.00
17635;BME280;8936;49.010;12.120;2022-10-16T11:11:40;98234.53;;;18.76;100.00
17635;BME280;8936;49.010;12.120;2022-10-16T11:14:11;98229.91;;;18.99;100.00
17635;BME280;8936;49.010;12.120;2022-10-16T11:16:42;98222.25;;;19.01;100.00
17635;BME280;8936;49.010;12.120;2022-10-16T11:19:11;98219.78;;;19.13;100.00
17635;BME280;8936;49.010;12.120;2022-10-16T11:21:43;98226.97;;;19.18;100.00
17635;BME280;8936;49.010;12.120;2022-10-16T11:24:14;98231.63;;;19.26;100.00
17635;BME280;8936;49.010;12.120;2022-10-16T11:26:42;98227.78;;;19.18;100.00
17635;BME280;8936;49.010;12.120;2022-10-16T11:29:10;98235.63;;;19.28;100.00
17635;BME280;8936;49.010;12.120;2022-10-16T11:31:40;98230.53;;;19.58;100.00
17635;BME280;8936;49.010;12.120;2022-10-16T11:34:12;98232.09;;;19.50;100.00
17635;BME280;8936;49.010;12.120;2022-10-16T11:36:43;98225.13;;;19.58;100.00
17635;BME280;8936;49.010;12.120;2022-10-16T11:39:14;98218.91;;;19.66;100.00
17635;BME280;8936;49.010;12.120;2022-10-16T11:41:45;98219.63;;;19.97;100.00
17635;BME280;8936;49.010;12.120;2022-10-16T11:44:19;98224.75;;;20.07;100.00
17635;BME280;8936;49.010;12.120;2022-10-16T11:46:50;98221.91;;;20.21;100.00
17635;BME280;8936;49.010;12.120;2022-10-16T11:49:20;98233.44;;;20.26;100.00
17635;BME280;8936;49.010;12.120;2022-10-16T11:51:50;98217.66;;;20.45;100.00
17635;BME280;8936;49.010;12.120;2022-10-16T11:54:20;98212.06;;;20.51;100.00
17635;BME280;8936;49.010;12.120;2022-10-16T11:56:50;98211.09;;;20.46;100.00
17635;BME280;8936;49.010;12.120;2022-10-16T11:59:20;98212.84;;;20.51;100.00
17635;BME280;8936;49.010;12.120;2022-10-16T12:01:50;98210.78;;;20.57;100.00
17635;BME280;8936;49.010;12.120;2022-10-16T12:04:21;98208.19;;;20.17;100.00
17635;BME280;8936;49.010;12.120;2022-10-16T12:06:52;98217.00;;;20.31;100.00
17635;BME280;8936;49.010;12.120;2022-10-16T12:09:22;98220.84;;;20.48;100.00
17635;BME280;8936;49.010;12.120;2022-10-16T12:11:50;98218.09;;;20.65;100.00
17635;BME280;8936;49.010;12.120;2022-10-16T12:14:21;98198.47;;;20.76;100.00
17635;BME280;8936;49.010;12.120;2022-10-16T12:16:52;98201.47;;;20.83;100.00
17635;BME280;8936;49.010;12.120;2022-10-16T12:19:19;98197.81;;;20.88;100.00
17635;BME280;8936;49.010;12.120;2022-10-16T12:21:47;98202.28;;;20.84;100.00
17635;BME280;8936;49.010;12.120;2022-10-16T12:26:55;98198.25;;;21.07;100.00
17635;BME280;8936;49.010;12.120;2022-10-16T12:29:23;98203.19;;;21.05;100.00
17635;BME280;8936;49.010;12.120;2022-10-16T12:31:54;98201.44;;;21.00;100.00
17635;BME280;8936;49.010;12.120;2022-10-16T12:34:21;98202.53;;;21.08;100.00
17635;BME280;8936;49.010;12.120;2022-10-16T12:36:51;98199.00;;;21.08;100.00
17635;BME280;8936;49.010;12.120;2022-10-16T12:39:20;98195.22;;;21.00;100.00
17635;BME280;8936;49.010;12.120;2022-10-16T12:41:47;98202.28;;;20.84;100.00
17635;BME280;8936;49.010;12.120;2022-10-16T12:44:21;98197.63;;;20.93;100.00
17635;BME280;8936;49.010;12.120;2022-10-16T12:46:49;98195.41;;;20.95;100.00
17635;BME280;8936;49.010;12.120;2022-10-16T12:49:23;98197.47;;;20.98;100.00
17635;BME280;8936;49.010;12.120;2022-10-16T12:51:56;98198.88;;;20.95;100.00
17635;BME280;8936;49.010;12.120;2022-10-16T12:54:24;98204.47;;;20.99;100.00
17635;BME280;8936;49.010;12.120;2022-10-16T12:56:54;98201.59;;;21.04;100.00
17635;BME280;8936;49.010;12.120;2022-10-16T12:59:25;98207.97;;;21.08;100.00